Airfield :
LOGIN :

Register | Disclaimer

   EN    FR    IT 

 










Legend :    VFR   Marginal VFR   IFR   Intensive IFR   Very Intensive IFR
Visi :
Ceiling :
>= 8 km
>= 3000ft
5 to 8 km
1000 to 3000 ft
1500m to 5 km
500 to 1000 ft
800 to 1500m
200 to 500 ft
< 800m
< 200 ft
Symbols :   Thunderstorms  Fog  Heavy snow  Heavy precipitations  Wind > 20 kt
SIGMETs :     Misc.  Thunderstorms  Icing  Turbulence  Mountain Waves  Volcanic Ashes







- Airport Elevation : 1197 ft
- IATA code : SPM


ETAD - Spangdahlem Ab

CURRENT METAR :
  • 181956Z AUTO 05010KT 9999 FEW070 SCT095 02/M10 A3015 RMK AO2 SLP219 T00151097 $

EXPIRED METARs :
  • 181856Z AUTO 05011KT 9999 CLR 02/M11 A3016 RMK AO2 SLP222 T00231106 $
  • 181756Z AUTO 06014KT 9999 CLR 03/M07 A3017 RMK AO2 SLP226 T00341069 10062 20032 57012 $

TAF TAF ETAD
Valid from the 18 at 11:00 until the 19 at 17:00 UTC


181100Z 1811/1917 07012G20KT 9999 SKC QNH3022INS
BECMG 1816/1817 05008KT 9999 SKC QNH3017INS
BECMG 1901/1902 03006KT 8000 BR BKN005 QNH3012INS
BECMG 1908/1909 03010G15KT 9999 NSW BKN010 QNH3005INS TX05/1813Z TNM02/1901Z LAST NO AMDS AFT 1820 NEXT 1905
No reported NOTAMs for that airfield.



MET'MAP, your aeronautical weather chart ! - Copyright ORBIFLY December 2007 - Disclaimer

ORBIFLY MET'MAP TEAM :

Programming & Development : Alexandra Zaïnal
Concept & Development : Baudouin d'Aumeries
Co-Development & Prog : Marc-Olivier Méhu
Technical & hardware support : Manuel Goepfert

Contact : metmap@orbifly.com




SOURCES & CREDITS :

   NOAA